createdAt,value
2022-08-24T00:01:51.615Z,17.67
2022-08-24T00:04:17.931Z,17.63
2022-08-24T00:06:44.625Z,17.64
2022-08-24T00:09:10.853Z,17.62
2022-08-24T00:11:37.087Z,17.66
2022-08-24T00:14:03.315Z,17.62
2022-08-24T00:16:29.642Z,17.53
2022-08-24T00:18:55.949Z,17.53
2022-08-24T00:21:22.201Z,17.51
2022-08-24T00:23:48.432Z,17.49
2022-08-24T00:26:14.912Z,17.50
2022-08-24T00:28:41.326Z,17.51
2022-08-24T00:31:08.105Z,17.50
2022-08-24T00:33:34.999Z,17.45
2022-08-24T00:36:01.220Z,17.45
2022-08-24T00:38:27.851Z,17.54
2022-08-24T00:40:56.130Z,17.45
2022-08-24T00:43:23.136Z,17.30
2022-08-24T00:46:02.043Z,17.15
2022-08-24T00:48:29.472Z,17.07
2022-08-24T00:50:56.983Z,16.91
2022-08-24T00:53:24.454Z,16.86
2022-08-24T00:55:52.074Z,17.01
2022-08-24T00:58:19.824Z,17.05
2022-08-24T01:00:48.943Z,17.06
2022-08-24T01:03:15.201Z,16.98
2022-08-24T01:05:41.441Z,16.73
2022-08-24T01:08:08.367Z,16.78
2022-08-24T01:10:37.837Z,16.80
2022-08-24T01:13:04.836Z,16.88
2022-08-24T01:15:32.182Z,16.91
2022-08-24T01:17:58.461Z,16.91
2022-08-24T01:20:24.748Z,16.92
2022-08-24T01:22:53.952Z,16.94
2022-08-24T01:25:20.932Z,16.82
2022-08-24T01:27:49.567Z,16.79
2022-08-24T01:30:15.881Z,16.85
2022-08-24T01:32:51.799Z,16.86
2022-08-24T01:35:18.037Z,16.85
2022-08-24T01:37:44.282Z,16.59
2022-08-24T01:40:10.615Z,16.57
2022-08-24T01:42:36.972Z,16.62
2022-08-24T01:45:03.445Z,16.71
2022-08-24T01:47:29.690Z,16.72
2022-08-24T01:49:55.915Z,16.71
2022-08-24T01:52:23.881Z,16.82
2022-08-24T01:54:50.118Z,16.65
2022-08-24T01:57:18.634Z,16.63
2022-08-24T01:59:44.873Z,16.63
2022-08-24T02:02:15.828Z,16.70
2022-08-24T02:04:42.088Z,16.71
2022-08-24T02:07:10.589Z,16.72
2022-08-24T02:09:36.815Z,16.71
2022-08-24T02:12:03.721Z,16.68
2022-08-24T02:14:30.617Z,16.66
2022-08-24T02:16:59.232Z,16.61
2022-08-24T02:19:25.539Z,16.57
2022-08-24T02:21:51.764Z,16.69
2022-08-24T02:24:18.013Z,16.70
2022-08-24T02:26:44.235Z,16.65
2022-08-24T02:29:10.481Z,16.43
2022-08-24T02:31:36.764Z,16.53
2022-08-24T02:34:03.278Z,16.55
2022-08-24T02:36:29.512Z,16.54
2022-08-24T02:38:55.765Z,16.57
2022-08-24T02:41:22.142Z,16.58
2022-08-24T02:43:48.402Z,16.58
2022-08-24T02:46:21.529Z,16.59
2022-08-24T02:48:47.808Z,16.59
2022-08-24T02:51:25.519Z,16.57
2022-08-24T02:53:52.339Z,16.55
2022-08-24T02:56:18.576Z,16.47
2022-08-24T02:58:45.143Z,16.49
2022-08-24T03:01:13.715Z,16.49
2022-08-24T03:03:50.054Z,16.55
2022-08-24T03:06:16.283Z,16.63
2022-08-24T03:08:42.516Z,16.56
2022-08-24T03:11:14.825Z,16.51
2022-08-24T03:13:41.076Z,16.40
2022-08-24T03:16:07.322Z,16.31
2022-08-24T03:18:33.735Z,16.34
2022-08-24T03:21:03.424Z,16.32
2022-08-24T03:23:29.661Z,16.25
2022-08-24T03:26:00.879Z,16.27
2022-08-24T03:28:27.226Z,16.20
2022-08-24T03:30:53.661Z,16.21
2022-08-24T03:33:20.601Z,16.24
2022-08-24T03:35:46.891Z,16.23
2022-08-24T03:38:13.126Z,16.29
2022-08-24T03:40:39.941Z,16.26
2022-08-24T03:43:06.188Z,16.26
2022-08-24T03:45:32.470Z,16.20
2022-08-24T03:47:58.768Z,16.15
2022-08-24T03:50:25.043Z,16.07
2022-08-24T03:52:51.294Z,16.02
2022-08-24T03:55:17.721Z,15.96
2022-08-24T03:57:43.944Z,15.92
2022-08-24T04:00:11.221Z,15.88
2022-08-24T04:02:37.512Z,15.87
2022-08-24T04:05:04.637Z,15.86
2022-08-24T04:07:30.908Z,15.83
2022-08-24T04:09:57.149Z,15.80
2022-08-24T04:12:23.444Z,15.79
2022-08-24T04:14:52.953Z,15.79
2022-08-24T04:17:19.176Z,15.74
2022-08-24T04:19:45.413Z,15.58
2022-08-24T04:22:11.636Z,15.68
2022-08-24T04:24:37.881Z,15.73
2022-08-24T04:27:04.180Z,15.74
2022-08-24T04:29:30.417Z,15.76
2022-08-24T04:31:56.668Z,15.85
2022-08-24T04:34:22.937Z,15.92
2022-08-24T04:36:49.163Z,15.98
2022-08-24T04:39:15.412Z,15.99
2022-08-24T04:41:41.639Z,15.94
2022-08-24T04:44:08.156Z,16.00
2022-08-24T04:46:34.396Z,15.89
2022-08-24T04:49:00.631Z,15.93
2022-08-24T04:51:26.872Z,15.92
2022-08-24T04:53:55.519Z,15.95
2022-08-24T04:56:22.407Z,15.99
2022-08-24T04:58:48.640Z,16.08
2022-08-24T05:01:16.033Z,16.01
2022-08-24T05:03:43.976Z,16.05
2022-08-24T05:06:11.113Z,16.11
2022-08-24T05:08:37.341Z,16.12
2022-08-24T05:11:04.219Z,16.18
2022-08-24T05:13:30.535Z,16.25
2022-08-24T05:15:56.806Z,16.18
2022-08-24T05:18:23.096Z,16.19
2022-08-24T05:20:49.345Z,16.34
2022-08-24T05:23:15.589Z,16.32
2022-08-24T05:25:41.828Z,16.22
2022-08-24T05:28:08.132Z,16.33
2022-08-24T05:30:34.370Z,16.63
2022-08-24T05:33:00.731Z,16.75
2022-08-24T05:35:27.017Z,17.14
2022-08-24T05:37:53.239Z,17.37
2022-08-24T05:40:19.582Z,17.54
2022-08-24T05:42:46.000Z,17.53
2022-08-24T05:45:12.241Z,17.76
2022-08-24T05:47:38.465Z,17.83
2022-08-24T05:50:05.275Z,17.58
2022-08-24T05:52:31.724Z,18.01
2022-08-24T05:54:58.305Z,18.99
2022-08-24T05:57:24.686Z,19.93
2022-08-24T05:59:50.931Z,20.56
2022-08-24T06:02:17.338Z,21.24
2022-08-24T06:04:43.786Z,21.59
2022-08-24T06:07:10.035Z,21.59
2022-08-24T06:09:36.265Z,22.12
2022-08-24T06:12:02.540Z,22.12
2022-08-24T06:14:28.782Z,22.50
2022-08-24T06:16:55.174Z,22.46
2022-08-24T06:19:21.472Z,23.06
2022-08-24T06:21:48.366Z,23.22
2022-08-24T06:24:14.656Z,23.74
2022-08-24T06:26:40.952Z,23.21
2022-08-24T06:29:07.241Z,22.93
2022-08-24T06:31:40.555Z,23.13
2022-08-24T06:34:08.678Z,23.58
2022-08-24T06:36:34.922Z,23.34
2022-08-24T06:39:01.153Z,21.93
2022-08-24T06:41:27.391Z,21.40
2022-08-24T06:43:53.620Z,20.64
2022-08-24T06:46:24.137Z,20.48
2022-08-24T06:48:51.294Z,20.33
2022-08-24T06:51:17.800Z,20.56
2022-08-24T06:53:45.271Z,20.59
2022-08-24T06:56:11.672Z,21.08
2022-08-24T06:58:38.309Z,22.21
2022-08-24T07:01:33.986Z,23.43
2022-08-24T07:04:00.263Z,23.89
2022-08-24T07:06:26.510Z,24.19
2022-08-24T07:08:52.764Z,24.08
2022-08-24T07:11:19.032Z,24.12
2022-08-24T07:13:45.865Z,24.14
2022-08-24T07:16:12.201Z,24.84
2022-08-24T07:18:41.209Z,25.26
2022-08-24T07:21:09.548Z,25.00
2022-08-24T07:23:42.310Z,24.91
2022-08-24T07:26:10.332Z,25.09
2022-08-24T07:28:45.099Z,24.70
2022-08-24T07:31:11.392Z,25.12
2022-08-24T07:33:37.672Z,25.44
2022-08-24T07:36:04.013Z,25.16
2022-08-24T07:38:30.818Z,25.52
2022-08-24T07:41:33.717Z,25.80
2022-08-24T07:43:46.121Z,25.47
2022-08-24T07:46:12.434Z,25.05
2022-08-24T07:48:38.850Z,24.16
2022-08-24T07:51:08.469Z,24.44
2022-08-24T07:53:52.657Z,23.69
2022-08-24T07:56:19.833Z,23.08
2022-08-24T07:58:46.066Z,23.48
2022-08-24T08:01:12.338Z,24.04
2022-08-24T08:03:38.943Z,24.49
2022-08-24T08:06:05.842Z,24.91
2022-08-24T08:08:32.089Z,25.63
2022-08-24T08:10:59.727Z,25.42
2022-08-24T08:13:25.948Z,24.86
2022-08-24T08:15:53.204Z,25.09
2022-08-24T08:18:20.118Z,25.41
2022-08-24T08:20:46.354Z,25.11
2022-08-24T08:23:12.591Z,24.90
2022-08-24T08:25:38.828Z,25.50
2022-08-24T08:28:18.457Z,25.74
2022-08-24T08:30:51.784Z,25.27
2022-08-24T08:33:19.101Z,25.62
2022-08-24T08:35:45.352Z,25.91
2022-08-24T08:38:11.608Z,26.02
2022-08-24T08:40:42.273Z,25.54
2022-08-24T08:43:09.869Z,25.55
2022-08-24T08:45:59.676Z,25.61
2022-08-24T08:48:41.213Z,25.39
2022-08-24T08:51:19.349Z,25.40
2022-08-24T08:53:52.469Z,24.77
2022-08-24T08:56:33.912Z,24.95
2022-08-24T08:59:07.355Z,24.68
2022-08-24T09:01:48.948Z,25.04
2022-08-24T09:04:34.233Z,24.58
2022-08-24T09:07:00.465Z,25.74
2022-08-24T09:09:34.971Z,25.71
2022-08-24T09:12:13.627Z,25.36
2022-08-24T09:14:52.009Z,25.61
2022-08-24T09:17:25.209Z,25.23
2022-08-24T09:20:14.683Z,25.77
2022-08-24T09:22:41.803Z,26.12
2022-08-24T09:25:10.938Z,26.59
2022-08-24T09:27:37.123Z,26.24
2022-08-24T09:30:07.459Z,26.75
2022-08-24T09:32:52.238Z,26.81
2022-08-24T09:35:19.699Z,26.73
2022-08-24T09:37:58.076Z,26.85
2022-08-24T09:40:27.099Z,27.28
2022-08-24T09:43:12.010Z,27.38
2022-08-24T09:45:48.207Z,27.17
2022-08-24T09:48:24.446Z,27.45
2022-08-24T09:51:09.445Z,27.47
2022-08-24T09:53:55.916Z,27.66
2022-08-24T09:56:22.084Z,27.62
2022-08-24T09:59:04.476Z,28.00
2022-08-24T10:01:30.726Z,27.87
2022-08-24T10:04:05.454Z,27.73
2022-08-24T10:06:51.920Z,27.71
2022-08-24T10:09:40.001Z,28.34
2022-08-24T10:12:09.389Z,28.52
2022-08-24T10:14:35.576Z,27.80
2022-08-24T10:17:09.871Z,28.30
2022-08-24T10:19:48.320Z,27.80
2022-08-24T10:22:24.161Z,28.00
2022-08-24T10:24:53.473Z,27.20
2022-08-24T10:27:31.636Z,27.66
2022-08-24T10:30:03.737Z,26.75
2022-08-24T10:32:48.833Z,26.06
2022-08-24T10:35:19.969Z,27.03
2022-08-24T10:38:01.609Z,27.53
2022-08-24T10:40:40.487Z,28.11
2022-08-24T10:43:26.178Z,27.93
2022-08-24T10:46:00.738Z,28.11
2022-08-24T10:48:29.780Z,27.44
2022-08-24T10:51:13.081Z,27.34
2022-08-24T10:53:39.388Z,27.54
2022-08-24T10:56:09.743Z,26.68
2022-08-24T10:58:38.932Z,27.21
2022-08-24T11:01:14.892Z,27.64
2022-08-24T11:03:53.109Z,27.77
2022-08-24T11:06:19.514Z,28.17
2022-08-24T11:09:19.511Z,28.06
2022-08-24T11:11:47.198Z,28.26
2022-08-24T11:14:16.411Z,28.47
2022-08-24T11:16:43.638Z,28.55
2022-08-24T11:19:30.152Z,28.80
2022-08-24T11:21:57.047Z,28.14
2022-08-24T11:24:23.241Z,28.41
2022-08-24T11:26:55.350Z,28.53
2022-08-24T11:29:22.112Z,28.51
2022-08-24T11:31:49.095Z,28.52
2022-08-24T11:34:32.417Z,28.62
2022-08-24T11:36:58.665Z,28.61
2022-08-24T11:39:30.301Z,28.64
2022-08-24T11:42:02.274Z,28.90
2022-08-24T11:44:48.976Z,28.70
2022-08-24T11:47:24.301Z,28.61
2022-08-24T11:49:59.273Z,28.00
2022-08-24T11:52:31.269Z,27.69
2022-08-24T11:55:16.124Z,27.49
2022-08-24T11:58:03.077Z,28.02
2022-08-24T12:00:39.406Z,27.50
2022-08-24T12:03:05.687Z,27.88
2022-08-24T12:05:40.021Z,28.16
2022-08-24T12:08:24.914Z,28.14
2022-08-24T12:10:56.963Z,28.39
2022-08-24T12:13:32.470Z,28.05
2022-08-24T12:16:04.150Z,27.81
2022-08-24T12:18:35.315Z,28.44
2022-08-24T12:21:01.562Z,28.34
2022-08-24T12:23:37.915Z,28.26
2022-08-24T12:26:30.389Z,28.35
2022-08-24T12:29:00.475Z,28.57
2022-08-24T12:31:45.221Z,28.35
2022-08-24T12:34:13.456Z,28.31
2022-08-24T12:36:57.865Z,28.40
2022-08-24T12:39:28.646Z,27.69
2022-08-24T12:42:01.214Z,27.84
2022-08-24T12:44:40.711Z,27.31
2022-08-24T12:47:06.937Z,27.64
2022-08-24T12:49:40.381Z,27.28
2022-08-24T12:52:14.750Z,26.80
2022-08-24T12:54:46.850Z,26.34
2022-08-24T12:57:54.029Z,26.24
2022-08-24T13:00:28.232Z,26.73
2022-08-24T13:02:59.123Z,27.17
2022-08-24T13:05:25.433Z,27.26
2022-08-24T13:07:52.413Z,27.44
2022-08-24T13:10:18.609Z,27.62
2022-08-24T13:12:44.809Z,27.67
2022-08-24T13:15:22.920Z,27.82
2022-08-24T13:17:49.581Z,27.81
2022-08-24T13:20:20.769Z,27.70
2022-08-24T13:22:48.458Z,27.73
2022-08-24T13:25:22.205Z,27.59
2022-08-24T13:27:49.273Z,27.47
2022-08-24T13:30:20.585Z,26.79
2022-08-24T13:32:48.059Z,26.96
2022-08-24T13:35:33.240Z,27.02
2022-08-24T13:38:23.177Z,26.92
2022-08-24T13:40:51.302Z,26.94
2022-08-24T13:43:40.828Z,27.18
2022-08-24T13:46:25.434Z,27.18
2022-08-24T13:49:10.501Z,27.15
2022-08-24T13:51:42.059Z,27.01
2022-08-24T13:54:20.382Z,26.82
2022-08-24T13:57:04.206Z,26.74
2022-08-24T13:59:50.212Z,27.01
2022-08-24T14:02:16.387Z,27.15
2022-08-24T14:04:42.591Z,27.04
2022-08-24T14:07:21.879Z,27.09
2022-08-24T14:10:03.692Z,27.01
2022-08-24T14:12:29.885Z,27.22
2022-08-24T14:15:14.737Z,27.16
2022-08-24T14:17:55.348Z,27.06
2022-08-24T14:20:30.657Z,26.98
2022-08-24T14:22:59.272Z,26.83
2022-08-24T14:25:26.517Z,26.86
2022-08-24T14:27:58.860Z,26.89
2022-08-24T14:30:25.091Z,26.98
2022-08-24T14:32:57.323Z,26.86
2022-08-24T14:35:33.874Z,26.76
2022-08-24T14:38:12.674Z,26.97
2022-08-24T14:40:57.912Z,26.79
2022-08-24T14:43:30.815Z,26.71
2022-08-24T14:46:03.621Z,26.73
2022-08-24T14:48:47.559Z,26.57
2022-08-24T14:51:20.312Z,26.56
2022-08-24T14:53:52.652Z,26.51
2022-08-24T14:56:40.687Z,26.59
2022-08-24T14:59:23.842Z,26.59
2022-08-24T15:01:51.042Z,26.45
2022-08-24T15:04:36.128Z,26.36
2022-08-24T15:07:22.656Z,26.47
2022-08-24T15:09:50.218Z,26.39
2022-08-24T15:12:36.476Z,26.29
2022-08-24T15:15:05.828Z,26.30
2022-08-24T15:17:39.210Z,26.48
2022-08-24T15:20:10.077Z,26.44
2022-08-24T15:22:37.491Z,26.37
2022-08-24T15:25:23.972Z,26.41
2022-08-24T15:27:53.099Z,26.32
2022-08-24T15:30:27.169Z,25.94
2022-08-24T15:33:03.990Z,26.03
2022-08-24T15:35:31.219Z,26.15
2022-08-24T15:37:57.480Z,26.12
2022-08-24T15:40:28.135Z,26.25
2022-08-24T15:42:54.394Z,26.36
2022-08-24T15:45:20.635Z,26.17
2022-08-24T15:47:51.248Z,25.91
2022-08-24T15:50:22.614Z,25.82
2022-08-24T15:52:58.394Z,25.86
2022-08-24T15:55:24.576Z,25.95
2022-08-24T15:57:50.805Z,25.80
2022-08-24T16:02:43.242Z,25.70
2022-08-24T16:05:17.210Z,25.70
2022-08-24T16:08:01.773Z,25.65
2022-08-24T16:10:31.874Z,25.65
2022-08-24T16:13:18.865Z,25.57
2022-08-24T16:15:45.047Z,25.47
2022-08-24T16:18:11.273Z,25.53
2022-08-24T16:20:37.511Z,25.55
2022-08-24T16:23:05.026Z,25.65
2022-08-24T16:25:42.754Z,25.66
2022-08-24T16:28:10.960Z,25.58
2022-08-24T16:30:44.762Z,25.52
2022-08-24T16:33:33.605Z,25.41
2022-08-24T16:36:06.939Z,25.24
2022-08-24T16:38:33.256Z,25.04
2022-08-24T16:41:06.974Z,24.96
2022-08-24T16:43:33.686Z,24.95
2022-08-24T16:46:00.042Z,24.99
2022-08-24T16:48:26.336Z,24.90
2022-08-24T16:50:52.584Z,24.87
2022-08-24T16:53:18.815Z,24.77
2022-08-24T16:55:45.060Z,24.84
2022-08-24T16:58:11.284Z,24.83
2022-08-24T17:00:37.509Z,24.50
2022-08-24T17:03:03.753Z,24.42
2022-08-24T17:05:29.992Z,24.56
2022-08-24T17:07:57.296Z,24.45
2022-08-24T17:10:23.523Z,24.36
2022-08-24T17:12:49.852Z,24.16
2022-08-24T17:15:16.102Z,24.26
2022-08-24T17:17:43.504Z,24.19
2022-08-24T17:20:09.750Z,24.13
2022-08-24T17:22:36.006Z,24.02
2022-08-24T17:25:02.258Z,23.94
2022-08-24T17:27:29.918Z,23.99
2022-08-24T17:29:56.161Z,23.93
2022-08-24T17:32:22.409Z,23.83
2022-08-24T17:34:48.643Z,23.85
2022-08-24T17:37:14.902Z,23.62
2022-08-24T17:39:41.143Z,23.64
2022-08-24T17:42:27.997Z,23.52
2022-08-24T17:44:53.603Z,23.53
2022-08-24T17:47:19.835Z,23.46
2022-08-24T17:49:46.064Z,23.34
2022-08-24T17:52:12.312Z,23.22
2022-08-24T17:54:38.540Z,23.14
2022-08-24T17:57:04.786Z,23.09
2022-08-24T17:59:31.921Z,23.06
2022-08-24T18:02:01.825Z,23.06
2022-08-24T18:04:28.562Z,23.02
2022-08-24T18:06:55.573Z,22.91
2022-08-24T18:09:29.439Z,22.80
2022-08-24T18:11:56.557Z,22.77
2022-08-24T18:14:23.152Z,22.87
2022-08-24T18:16:53.995Z,22.59
2022-08-24T18:19:22.950Z,22.51
2022-08-24T18:21:50.917Z,22.56
2022-08-24T18:24:17.149Z,22.62
2022-08-24T18:26:47.931Z,22.48
2022-08-24T18:29:18.062Z,22.28
2022-08-24T18:31:47.192Z,22.26
2022-08-24T18:34:16.440Z,22.17
2022-08-24T18:36:42.685Z,22.10
2022-08-24T18:39:08.916Z,22.13
2022-08-24T18:41:35.614Z,22.13
2022-08-24T18:44:01.934Z,22.01
2022-08-24T18:46:28.181Z,21.89
2022-08-24T18:48:54.417Z,21.72
2022-08-24T18:51:20.668Z,21.79
2022-08-24T18:53:46.902Z,21.76
2022-08-24T18:56:13.146Z,21.54
2022-08-24T18:58:39.464Z,21.42
2022-08-24T19:01:05.833Z,21.15
2022-08-24T19:03:32.142Z,21.07
2022-08-24T19:05:58.379Z,20.91
2022-08-24T19:08:24.614Z,20.91
2022-08-24T19:10:50.850Z,20.90
2022-08-24T19:13:17.080Z,20.88
2022-08-24T19:15:43.339Z,20.79
2022-08-24T19:18:09.719Z,20.70
2022-08-24T19:20:36.175Z,20.52
2022-08-24T19:23:06.794Z,20.48
2022-08-24T19:25:33.042Z,20.54
2022-08-24T19:27:59.273Z,20.47
2022-08-24T19:30:25.515Z,20.43
2022-08-24T19:32:51.754Z,20.30
2022-08-24T19:35:17.989Z,20.22
2022-08-24T19:37:44.234Z,20.23
2022-08-24T19:40:10.739Z,20.26
2022-08-24T19:42:37.076Z,20.24
2022-08-24T19:45:04.378Z,20.06
2022-08-24T19:47:30.848Z,19.93
2022-08-24T19:49:57.083Z,19.87
2022-08-24T19:52:23.338Z,19.78
2022-08-24T19:54:49.585Z,19.72
2022-08-24T19:57:29.602Z,19.61
2022-08-24T19:59:59.264Z,19.55
2022-08-24T20:02:25.604Z,19.44
2022-08-24T20:04:51.888Z,19.48
2022-08-24T20:07:18.124Z,19.43
2022-08-24T20:09:44.416Z,19.53
2022-08-24T20:12:10.976Z,19.64
2022-08-24T20:14:37.609Z,19.57
2022-08-24T20:17:04.120Z,19.60
2022-08-24T20:19:30.361Z,19.67
2022-08-24T20:21:56.609Z,19.82
2022-08-24T20:24:22.835Z,19.68
2022-08-24T20:26:49.072Z,19.52
2022-08-24T20:29:15.340Z,19.53
2022-08-24T20:31:42.158Z,19.54
2022-08-24T20:34:08.455Z,19.63
2022-08-24T20:36:38.311Z,19.71
2022-08-24T20:39:05.486Z,19.82
2022-08-24T20:41:31.736Z,19.99
2022-08-24T20:43:57.963Z,20.20
2022-08-24T20:46:24.761Z,20.32
2022-08-24T20:48:55.557Z,20.34
2022-08-24T20:51:22.626Z,20.19
2022-08-24T20:53:48.854Z,20.02
2022-08-24T20:56:15.799Z,20.04
2022-08-24T20:58:42.024Z,20.18
2022-08-24T21:01:08.336Z,20.22
2022-08-24T21:03:34.650Z,20.11
2022-08-24T21:06:00.925Z,20.11
2022-08-24T21:08:27.151Z,20.01
2022-08-24T21:10:53.395Z,20.20
2022-08-24T21:13:19.636Z,20.19
2022-08-24T21:15:45.911Z,20.29
2022-08-24T21:18:12.210Z,20.31
2022-08-24T21:20:38.536Z,20.28
2022-08-24T21:23:10.699Z,20.32
2022-08-24T21:25:36.932Z,20.33
2022-08-24T21:28:03.212Z,20.25
2022-08-24T21:30:29.442Z,20.26
2022-08-24T21:32:56.709Z,20.28
2022-08-24T21:35:22.950Z,20.26
2022-08-24T21:37:49.336Z,20.26
2022-08-24T21:40:15.707Z,20.25
2022-08-24T21:42:41.984Z,20.19
2022-08-24T21:45:08.458Z,20.18
2022-08-24T21:47:34.752Z,20.15
2022-08-24T21:50:00.992Z,20.12
2022-08-24T21:52:27.231Z,20.13
2022-08-24T21:54:53.454Z,20.11
2022-08-24T21:57:19.697Z,20.05
2022-08-24T21:59:45.937Z,19.95
2022-08-24T22:02:16.859Z,19.95
2022-08-24T22:04:47.163Z,19.68
2022-08-24T22:07:22.673Z,19.43
2022-08-24T22:09:48.895Z,19.36
2022-08-24T22:12:15.131Z,19.46
2022-08-24T22:14:41.366Z,19.57
2022-08-24T22:17:07.601Z,19.57
2022-08-24T22:19:33.841Z,19.58
2022-08-24T22:22:00.092Z,19.63
2022-08-24T22:24:26.332Z,19.59
2022-08-24T22:26:52.580Z,19.59
2022-08-24T22:29:18.799Z,19.60
2022-08-24T22:31:45.134Z,19.71
2022-08-24T22:34:12.264Z,19.64
2022-08-24T22:36:43.535Z,19.49
2022-08-24T22:39:10.162Z,19.40
2022-08-24T22:41:36.505Z,19.37
2022-08-24T22:44:02.956Z,19.27
2022-08-24T22:46:29.295Z,19.25
2022-08-24T22:48:55.577Z,19.27
2022-08-24T22:51:21.810Z,19.23
2022-08-24T22:53:48.035Z,19.12
2022-08-24T22:56:18.181Z,19.00
2022-08-24T22:58:44.416Z,18.80
2022-08-24T23:01:17.197Z,18.81
2022-08-24T23:03:43.586Z,18.86
2022-08-24T23:06:15.878Z,18.98
2022-08-24T23:08:42.360Z,18.90
2022-08-24T23:11:08.733Z,18.98
2022-08-24T23:13:35.340Z,19.00
2022-08-24T23:16:01.756Z,18.98
2022-08-24T23:18:28.070Z,18.93
2022-08-24T23:20:54.308Z,18.93
2022-08-24T23:23:20.557Z,18.95
2022-08-24T23:25:46.798Z,18.83
2022-08-24T23:28:13.041Z,18.79
2022-08-24T23:30:39.267Z,18.88
2022-08-24T23:33:05.673Z,18.82
2022-08-24T23:35:32.012Z,18.82
2022-08-24T23:37:58.289Z,18.71
2022-08-24T23:40:24.603Z,18.72
2022-08-24T23:42:50.857Z,18.75
2022-08-24T23:45:17.095Z,18.70
2022-08-24T23:47:43.752Z,18.56
2022-08-24T23:50:11.402Z,18.41
2022-08-24T23:52:37.808Z,18.32
2022-08-24T23:55:20.260Z,18.28
2022-08-24T23:57:48.060Z,18.26
